Kingston, Missouri
Current Conditions -  °F | °C
As of 2:35 PM on Friday 31 Oct 2014 (Local Time) from KGPH Reporting Station
Clear Clear  
Wind Chill: 37°   Ceiling: Unl
Heat Index: 43°   Visibility: 10mi
Dew Point: 16°   Wind: 12mph
Humidity: 34%   Direction: 350°N
Pressure: 30.46"   Gusts: 18mph
Location:  39.64°N, 94.04°W
Report Text: KGPH 311935Z AUTO 35010G16KT 10SM CLR 06/M09 A3046 RMK AO2
Loading
Personal Weather Stations






























Interactive Weather Map
Tropical Storm Tracking
New forecast layout! Learn more

10-Day Weather Forecast

Advertisements
Track Severe Weather on mobile